Waterkloof Air Force Base Airport

Airport
ICAO code: 
FAWK
Summary
ICAO Region: 
AFI
Territory: 
Location: 
, Gauteng
Serving: 
Waterkloof
Elevation: 
4940 ft
Coordinates: 
Aerial View: 
25° 49' 48" S, 28° 13' 21" E
Metar
Observation
FAWK 011200Z AUTO 35008G20KT //// // ////// 29/15 Q1020
Station
Waterkloof (SAAF)
Date/Time
2021-12-01 12:00:00
Wind direction
350°
Wind speed
08 kts
Lowest cloud amount
n/a
Temperature
29°C
Dew point
15°C
Humidity
42%
QNH
1020 hPa
Weather condition
n/a

Runways

Designator Length Width Surface Rops
6/24 1920 45 ASP No/No
1/19 3353 45 ASP No/No
Airport map: 
Aerial View: 

SKYbrary Partners:

Safety knowledge contributed by: